Time;durP1;ratioP1;P1;durP2;ratioP2;P2;SDS_P1;SDS_P2;PMS_P1;PMS_P2;Temp;Humidity;BMP_temperature;BMP_pressure;BME280_temperature;BME280_humidity;BME280_pressure;Samples;Min_cycle;Max_cycle;Signal;HPM_P1;HPM_P2
2022/03/17 00:00:07;;;;;;;;;;;;;;;;;;1040114;28;1063;-38
2022/03/17 00:00:37;;;;;;;;;;;;;;;;;;1040068;28;858;-37
2022/03/17 00:01:08;;;;;;;;;;;;;;;;;;1040270;28;981;-37
2022/03/17 00:01:38;;;;;;;;;;;;;;;;;;1040117;28;831;-37
2022/03/17 00:02:08;;;;;;;;;;;;;;;;;;1040162;28;874;-37
2022/03/17 00:02:39;;;;;;;;;;;;;;;;;;1040172;28;854;-38
2022/03/17 00:03:09;;;;;;;;;;;;;;;;;;1040160;28;941;-38
2022/03/17 00:03:40;;;;;;;;;;;;;;;;;;1040107;28;1062;-36
2022/03/17 00:04:10;;;;;;;;;;;;;;;;;;1040178;28;937;-37
2022/03/17 00:04:40;;;;;;;;;;;;;;;;;;1040082;28;809;-37
2022/03/17 00:05:11;;;;;;;;;;;;;;;;;;1040233;28;1599;-38
2022/03/17 00:05:42;;;;;;;;;;;;;;;;;;1039988;28;1703;-35
2022/03/17 00:06:13;;;;;;;;;;;;;;;;;;1039598;28;1914;-38
2022/03/17 00:06:44;;;;;;;;;;;;;;;;;;1040015;28;926;-37
2022/03/17 00:07:14;;;;;;;;;;;;;;;;;;1040154;28;902;-37
2022/03/17 00:07:46;;;;;;;;;;;;;;;;;;1040152;28;945;-37
2022/03/17 00:08:16;;;;;;;;;;;;;;;;;;1039957;28;780;-37
2022/03/17 00:08:46;;;;;;;;;;;;;;;;;;1040350;28;819;-37
2022/03/17 00:09:17;;;;;;;;;;;;;;;;;;1035731;28;903;-37
2022/03/17 00:09:47;;;;;;;;;;;;;;;;;;1035666;28;898;-37
2022/03/17 00:10:17;;;;;;;;;;;;;;;;;;1035683;28;662;-37
2022/03/17 00:10:48;;;;;;;;;;;;;;;;;;1035730;28;913;-37
2022/03/17 00:11:18;;;;;;;;;;;;;;;;;;1040186;28;815;-38
2022/03/17 00:11:49;;;;;;;;;;;;;;;;;;1040349;28;906;-35
2022/03/17 00:12:19;;;;;;;;;;;;;;;;;;1040043;28;929;-38
2022/03/17 00:12:50;;;;;;;;;;;;;;;;;;1040231;28;1000;-36
2022/03/17 00:13:21;;;;;;;;;;;;;;;;;;1040129;28;901;-37
2022/03/17 00:13:52;;;;;;;;;;;;;;;;;;1039651;28;914;-36
2022/03/17 00:14:22;;;;;;;;;;;;;;;;;;1040186;28;929;-37
2022/03/17 00:14:52;;;;;;;;;;;;;;;;;;1040075;28;921;-37
2022/03/17 00:15:23;;;;;;;;;;;;;;;;;;1040204;28;803;-38
2022/03/17 00:15:53;;;;;;;;;;;;;;;;;;1040226;28;815;-38
2022/03/17 00:16:23;;;;;;;;;;;;;;;;;;1039702;28;989;-36
2022/03/17 00:16:54;;;;;;;;;;;;;;;;;;1039823;28;993;-37
2022/03/17 00:17:25;;;;;;;;;;;;;;;;;;1039827;28;898;-38
2022/03/17 00:17:57;;;;;;;;;;;;;;;;;;1039689;28;893;-38
2022/03/17 00:18:27;;;;;;;;;;;;;;;;;;1040179;28;938;-38
2022/03/17 00:18:57;;;;;;;;;;;;;;;;;;1039977;28;779;-38
2022/03/17 00:19:28;;;;;;;;;;;;;;;;;;1039888;28;846;-38
2022/03/17 00:19:58;;;;;;;;;;;;;;;;;;1039345;28;928;-36
2022/03/17 00:20:28;;;;;;;;;;;;;;;;;;1039978;28;811;-36
2022/03/17 00:20:59;;;;;;;;;;;;;;;;;;1039733;28;930;-37
2022/03/17 00:21:29;;;;;;;;;;;;;;;;;;1039974;28;802;-36
2022/03/17 00:21:59;;;;;;;;;;;;;;;;;;1040148;28;1016;-37
2022/03/17 00:22:30;;;;;;;;;;;;;;;;;;1040151;28;911;-36
2022/03/17 00:23:01;;;;;;;;;;;;;;;;;;1039987;28;933;-36
2022/03/17 00:23:31;;;;;;;;;;;;;;;;;;1040276;28;1012;-35
2022/03/17 00:24:01;;;;;;;;;;;;;;;;;;1040031;28;813;-38
2022/03/17 00:24:32;;;;;;;;;;;;;;;;;;1040271;28;807;-37
2022/03/17 00:25:04;;;;;;;;;;;;;;;;;;1040157;28;1121;-38
2022/03/17 00:25:35;;;;;;;;;;;;;;;;;;1044227;28;896;-36
2022/03/17 00:26:05;;;;;;;;;;;;;;;;;;1044199;28;949;-35
2022/03/17 00:26:36;;;;;;;;;;;;;;;;;;1039758;28;1923;-37
2022/03/17 00:27:08;;;;;;;;;;;;;;;;;;1039683;28;953;-35
2022/03/17 00:27:38;;;;;;;;;;;;;;;;;;1039932;28;1085;-36
2022/03/17 00:28:08;;;;;;;;;;;;;;;;;;1039912;28;890;-37
2022/03/17 00:28:39;;;;;;;;;;;;;;;;;;1043692;28;847;-37
2022/03/17 00:29:11;;;;;;;;;;;;;;;;;;1044084;28;807;-38
2022/03/17 00:29:42;;;;;;;;;;;;;;;;;;1043928;28;869;-38
2022/03/17 00:30:12;;;;;;;;;;;;;;;;;;1043896;28;949;-38
2022/03/17 00:30:42;;;;;;;;;;;;;;;;;;1043921;28;906;-37
2022/03/17 00:31:16;;;;;;;;;;;;;;;;;;1043835;28;940;-38
2022/03/17 00:31:46;;;;;;;;;;;;;;;;;;1044448;28;831;-37
2022/03/17 00:32:17;;;;;;;;;;;;;;;;;;1044179;28;924;-37
2022/03/17 00:32:47;;;;;;;;;;;;;;;;;;1044321;28;934;-34
2022/03/17 00:33:18;;;;;;;;;;;;;;;;;;1044091;28;799;-37
2022/03/17 00:33:48;;;;;;;;;;;;;;;;;;1044392;28;917;-35
2022/03/17 00:34:18;;;;;;;;;;;;;;;;;;1044192;28;898;-37
2022/03/17 00:35:44;;;;;;;;;;;;;;;;;;1044170;28;926;-36
2022/03/17 00:36:15;;;;;;;;;;;;;;;;;;1043597;28;871;-37
2022/03/17 00:36:47;;;;;;;;;;;;;;;;;;1044316;28;989;-37
2022/03/17 00:37:18;;;;;;;;;;;;;;;;;;1044083;28;854;-36
2022/03/17 00:37:48;;;;;;;;;;;;;;;;;;1044207;28;957;-38
2022/03/17 00:38:19;;;;;;;;;;;;;;;;;;1044044;28;1634;-36
2022/03/17 00:38:49;;;;;;;;;;;;;;;;;;1044348;28;850;-38
2022/03/17 00:39:19;;;;;;;;;;;;;;;;;;1044217;28;778;-37
2022/03/17 00:39:50;;;;;;;;;;;;;;;;;;1044179;28;977;-35
2022/03/17 00:40:22;;;;;;;;;;;;;;;;;;1044072;28;869;-37
2022/03/17 00:40:52;;;;;;;;;;;;;;;;;;1044350;28;838;-35
2022/03/17 00:41:22;;;;;;;;;;;;;;;;;;1044012;28;957;-35
2022/03/17 00:41:53;;;;;;;;;;;;;;;;;;1044287;28;1041;-37
2022/03/17 00:42:24;;;;;;;;;;;;;;;;;;1044140;28;989;-34
2022/03/17 00:42:55;;;;;;;;;;;;;;;;;;1044122;28;835;-37
2022/03/17 00:43:26;;;;;;;;;;;;;;;;;;1043501;28;921;-36
2022/03/17 00:43:56;;;;;;;;;;;;;;;;;;1044086;28;814;-37
2022/03/17 00:44:26;;;;;;;;;;;;;;;;;;1043738;28;1183;-37
2022/03/17 00:44:57;;;;;;;;;;;;;;;;;;1043945;28;794;-35
2022/03/17 00:45:27;;;;;;;;;;;;;;;;;;1043746;28;799;-37
2022/03/17 00:45:57;;;;;;;;;;;;;;;;;;1043830;28;937;-36
2022/03/17 00:46:29;;;;;;;;;;;;;;;;;;1044025;28;1971;-38
2022/03/17 00:47:01;;;;;;;;;;;;;;;;;;1042761;28;1114;-37
2022/03/17 00:47:31;;;;;;;;;;;;;;;;;;1040026;28;927;-33
2022/03/17 00:48:02;;;;;;;;;;;;;;;;;;1039873;28;890;-37
2022/03/17 00:48:32;;;;;;;;;;;;;;;;;;1040087;28;869;-38
2022/03/17 00:49:03;;;;;;;;;;;;;;;;;;1040112;28;819;-37
2022/03/17 00:49:33;;;;;;;;;;;;;;;;;;1040009;28;949;-35
2022/03/17 00:50:04;;;;;;;;;;;;;;;;;;1040102;28;843;-38
2022/03/17 00:50:35;;;;;;;;;;;;;;;;;;1039329;28;1110;-38
2022/03/17 00:51:05;;;;;;;;;;;;;;;;;;1039884;28;1001;-38
2022/03/17 00:51:36;;;;;;;;;;;;;;;;;;1039932;28;909;-37
2022/03/17 00:52:10;;;;;;;;;;;;;;;;;;1040176;28;783;-38
2022/03/17 00:52:40;;;;;;;;;;;;;;;;;;1040004;28;779;-37
2022/03/17 00:53:10;;;;;;;;;;;;;;;;;;1039982;28;866;-38
2022/03/17 00:53:41;;;;;;;;;;;;;;;;;;1040023;28;994;-38
2022/03/17 00:54:11;;;;;;;;;;;;;;;;;;1040105;28;902;-38
2022/03/17 00:54:42;;;;;;;;;;;;;;;;;;1039848;28;835;-38
2022/03/17 00:55:13;;;;;;;;;;;;;;;;;;1040103;28;1004;-38
2022/03/17 00:55:44;;;;;;;;;;;;;;;;;;1040022;28;827;-35
2022/03/17 00:56:14;;;;;;;;;;;;;;;;;;1039986;28;902;-39
2022/03/17 00:56:44;;;;;;;;;;;;;;;;;;1040103;28;915;-38
2022/03/17 00:57:15;;;;;;;;;;;;;;;;;;1039973;28;890;-38
2022/03/17 00:57:46;;;;;;;;;;;;;;;;;;1040018;28;867;-38
2022/03/17 00:58:16;;;;;;;;;;;;;;;;;;1039325;28;882;-37
2022/03/17 00:58:48;;;;;;;;;;;;;;;;;;1039911;28;906;-37
2022/03/17 00:59:19;;;;;;;;;;;;;;;;;;1040021;28;965;-35
2022/03/17 00:59:49;;;;;;;;;;;;;;;;;;1040009;28;929;-37
2022/03/17 01:00:20;;;;;;;;;;;;;;;;;;1039971;28;1008;-37
2022/03/17 01:00:51;;;;;;;;;;;;;;;;;;1039967;28;950;-38
2022/03/17 01:01:21;;;;;;;;;;;;;;;;;;1039895;28;799;-37
2022/03/17 01:01:52;;;;;;;;;;;;;;;;;;1040167;28;831;-37
2022/03/17 01:02:22;;;;;;;;;;;;;;;;;;1039829;28;965;-38
2022/03/17 01:02:53;;;;;;;;;;;;;;;;;;1040008;28;874;-36
2022/03/17 01:03:24;;;;;;;;;;;;;;;;;;1040038;28;850;-37
2022/03/17 01:03:54;;;;;;;;;;;;;;;;;;1037102;28;1192;-39
2022/03/17 01:04:24;;;;;;;;;;;;;;;;;;1035980;28;807;-38
2022/03/17 01:04:54;;;;;;;;;;;;;;;;;;1035797;28;925;-38
2022/03/17 01:05:25;;;;;;;;;;;;;;;;;;1035425;28;917;-38
2022/03/17 01:05:56;;;;;;;;;;;;;;;;;;1035959;28;799;-38
2022/03/17 01:06:26;;;;;;;;;;;;;;;;;;1035747;28;2007;-38
2022/03/17 01:06:56;;;;;;;;;;;;;;;;;;1035873;28;756;-35
2022/03/17 01:07:27;;;;;;;;;;;;;;;;;;1035917;28;748;-37
2022/03/17 01:07:58;;;;;;;;;;;;;;;;;;1035680;28;878;-38
2022/03/17 01:08:29;;;;;;;;;;;;;;;;;;1036021;28;961;-38
2022/03/17 01:08:59;;;;;;;;;;;;;;;;;;1035763;28;826;-38
2022/03/17 01:09:29;;;;;;;;;;;;;;;;;;1035939;28;1001;-38
2022/03/17 01:10:00;;;;;;;;;;;;;;;;;;1035845;28;991;-37
2022/03/17 01:10:30;;;;;;;;;;;;;;;;;;1035904;28;882;-38
2022/03/17 01:11:01;;;;;;;;;;;;;;;;;;1035863;28;799;-38
2022/03/17 01:11:31;;;;;;;;;;;;;;;;;;1035817;28;821;-38
2022/03/17 01:12:02;;;;;;;;;;;;;;;;;;1035880;28;747;-37
2022/03/17 01:12:32;;;;;;;;;;;;;;;;;;1035879;28;935;-37
2022/03/17 01:13:03;;;;;;;;;;;;;;;;;;1035082;28;902;-38
2022/03/17 01:13:33;;;;;;;;;;;;;;;;;;1035977;28;814;-35
2022/03/17 01:14:03;;;;;;;;;;;;;;;;;;1035957;28;1641;-38
2022/03/17 01:14:34;;;;;;;;;;;;;;;;;;1035771;28;1016;-38
2022/03/17 01:15:04;;;;;;;;;;;;;;;;;;1036030;28;806;-37
2022/03/17 01:15:35;;;;;;;;;;;;;;;;;;1035705;28;782;-39
2022/03/17 01:16:05;;;;;;;;;;;;;;;;;;1035915;28;973;-38
2022/03/17 01:16:35;;;;;;;;;;;;;;;;;;1035926;28;885;-38
2022/03/17 01:17:06;;;;;;;;;;;;;;;;;;1035907;28;925;-35
2022/03/17 01:17:36;;;;;;;;;;;;;;;;;;1035764;28;977;-37
2022/03/17 01:18:07;;;;;;;;;;;;;;;;;;1035833;28;862;-37
2022/03/17 01:18:37;;;;;;;;;;;;;;;;;;1035881;28;887;-35
2022/03/17 01:19:08;;;;;;;;;;;;;;;;;;1036002;28;886;-36
2022/03/17 01:19:38;;;;;;;;;;;;;;;;;;1035754;28;949;-37
2022/03/17 01:20:09;;;;;;;;;;;;;;;;;;1035703;28;922;-37
2022/03/17 01:20:41;;;;;;;;;;;;;;;;;;1035445;28;956;-38
2022/03/17 01:21:11;;;;;;;;;;;;;;;;;;1035891;28;925;-38
2022/03/17 01:21:42;;;;;;;;;;;;;;;;;;1035750;28;787;-37
2022/03/17 01:22:12;;;;;;;;;;;;;;;;;;1035883;28;1004;-37
2022/03/17 01:22:43;;;;;;;;;;;;;;;;;;1035718;28;918;-37
2022/03/17 01:23:13;;;;;;;;;;;;;;;;;;1035985;28;838;-37
2022/03/17 01:23:43;;;;;;;;;;;;;;;;;;1035687;28;925;-37
2022/03/17 01:24:14;;;;;;;;;;;;;;;;;;1035861;28;791;-37
2022/03/17 01:24:46;;;;;;;;;;;;;;;;;;1035842;28;858;-38
2022/03/17 01:25:17;;;;;;;;;;;;;;;;;;1037926;28;1153;-38
2022/03/17 01:25:47;;;;;;;;;;;;;;;;;;1039939;28;870;-38
2022/03/17 01:26:18;;;;;;;;;;;;;;;;;;1039760;28;1906;-37
2022/03/17 01:26:48;;;;;;;;;;;;;;;;;;1039913;28;917;-37
2022/03/17 01:27:20;;;;;;;;;;;;;;;;;;1039870;28;842;-37
2022/03/17 01:27:50;;;;;;;;;;;;;;;;;;1039087;28;1574;-37
2022/03/17 01:28:20;;;;;;;;;;;;;;;;;;1039968;28;838;-35
2022/03/17 01:28:51;;;;;;;;;;;;;;;;;;1039789;28;795;-38
2022/03/17 01:29:21;;;;;;;;;;;;;;;;;;1039952;28;886;-34
2022/03/17 01:29:53;;;;;;;;;;;;;;;;;;1039936;28;822;-37
2022/03/17 01:30:23;;;;;;;;;;;;;;;;;;1035413;28;922;-37
2022/03/17 01:30:54;;;;;;;;;;;;;;;;;;1035241;28;831;-38
2022/03/17 01:31:24;;;;;;;;;;;;;;;;;;1035262;28;791;-37
2022/03/17 01:31:55;;;;;;;;;;;;;;;;;;1035434;28;965;-36
2022/03/17 01:32:25;;;;;;;;;;;;;;;;;;1039924;28;784;-37
2022/03/17 01:32:55;;;;;;;;;;;;;;;;;;1039698;28;814;-37
2022/03/17 01:33:26;;;;;;;;;;;;;;;;;;1040019;28;818;-35
2022/03/17 01:33:56;;;;;;;;;;;;;;;;;;1039698;28;942;-37
2022/03/17 01:34:28;;;;;;;;;;;;;;;;;;1039917;28;905;-35
2022/03/17 01:34:59;;;;;;;;;;;;;;;;;;1039464;28;894;-37
2022/03/17 01:35:29;;;;;;;;;;;;;;;;;;1039706;28;819;-37
2022/03/17 01:35:59;;;;;;;;;;;;;;;;;;1039853;28;909;-35
2022/03/17 01:36:30;;;;;;;;;;;;;;;;;;1039948;28;861;-36
2022/03/17 01:37:00;;;;;;;;;;;;;;;;;;1039786;28;825;-37
2022/03/17 01:37:31;;;;;;;;;;;;;;;;;;1040053;28;811;-35
2022/03/17 01:38:01;;;;;;;;;;;;;;;;;;1039628;28;894;-37
2022/03/17 01:38:31;;;;;;;;;;;;;;;;;;1039873;28;1284;-37
2022/03/17 01:39:02;;;;;;;;;;;;;;;;;;1039831;28;827;-36
2022/03/17 01:39:32;;;;;;;;;;;;;;;;;;1039874;28;938;-36
2022/03/17 01:40:03;;;;;;;;;;;;;;;;;;1039737;28;1148;-35
2022/03/17 01:40:33;;;;;;;;;;;;;;;;;;1039700;28;886;-38
2022/03/17 01:41:04;;;;;;;;;;;;;;;;;;1039891;28;823;-36
2022/03/17 01:41:34;;;;;;;;;;;;;;;;;;1039899;28;831;-35
2022/03/17 01:42:06;;;;;;;;;;;;;;;;;;1039813;28;902;-37
2022/03/17 01:42:37;;;;;;;;;;;;;;;;;;1039105;28;822;-37
2022/03/17 01:43:07;;;;;;;;;;;;;;;;;;1039890;28;889;-37
2022/03/17 01:43:38;;;;;;;;;;;;;;;;;;1039703;28;902;-37
2022/03/17 01:44:08;;;;;;;;;;;;;;;;;;1039915;28;933;-37
2022/03/17 01:44:40;;;;;;;;;;;;;;;;;;1039839;28;976;-35
2022/03/17 01:45:10;;;;;;;;;;;;;;;;;;1039832;28;933;-37
2022/03/17 01:45:41;;;;;;;;;;;;;;;;;;1039875;28;942;-37
2022/03/17 01:46:14;;;;;;;;;;;;;;;;;;1039806;28;1991;-37
2022/03/17 01:47:33;;;;;;;;;;;;;;;;;;1043917;28;909;-40
2022/03/17 01:48:04;;;;;;;;;;;;;;;;;;1043826;28;861;-37
2022/03/17 01:48:35;;;;;;;;;;;;;;;;;;1043807;28;786;-37
2022/03/17 01:49:06;;;;;;;;;;;;;;;;;;1043905;28;1106;-37
2022/03/17 01:49:37;;;;;;;;;;;;;;;;;;1043983;28;961;-36
2022/03/17 01:50:09;;;;;;;;;;;;;;;;;;1043282;28;940;-37
2022/03/17 01:50:40;;;;;;;;;;;;;;;;;;1043876;28;918;-37
2022/03/17 01:51:11;;;;;;;;;;;;;;;;;;1043928;28;823;-37
2022/03/17 01:51:45;;;;;;;;;;;;;;;;;;1043837;28;925;-37
2022/03/17 01:52:15;;;;;;;;;;;;;;;;;;1043911;28;830;-36
2022/03/17 01:52:46;;;;;;;;;;;;;;;;;;1043784;28;869;-37
2022/03/17 01:53:16;;;;;;;;;;;;;;;;;;1043933;28;901;-37
2022/03/17 01:53:46;;;;;;;;;;;;;;;;;;1043977;28;905;-37
2022/03/17 01:54:19;;;;;;;;;;;;;;;;;;1043818;28;771;-36
2022/03/17 01:54:49;;;;;;;;;;;;;;;;;;1044092;28;834;-34
2022/03/17 01:55:21;;;;;;;;;;;;;;;;;;1043736;28;834;-37
2022/03/17 01:55:52;;;;;;;;;;;;;;;;;;1043958;28;882;-38
2022/03/17 01:56:22;;;;;;;;;;;;;;;;;;1043873;28;854;-36
2022/03/17 01:56:52;;;;;;;;;;;;;;;;;;1044017;28;882;-36
2022/03/17 01:57:23;;;;;;;;;;;;;;;;;;1043259;28;811;-37
2022/03/17 01:57:54;;;;;;;;;;;;;;;;;;1043616;28;945;-37
2022/03/17 01:58:24;;;;;;;;;;;;;;;;;;1043983;28;941;-38
2022/03/17 01:58:55;;;;;;;;;;;;;;;;;;1043913;28;834;-37
2022/03/17 01:59:26;;;;;;;;;;;;;;;;;;1039363;28;791;-34
2022/03/17 01:59:56;;;;;;;;;;;;;;;;;;1039351;28;902;-37
2022/03/17 02:00:27;;;;;;;;;;;;;;;;;;1039429;28;819;-37
2022/03/17 02:00:57;;;;;;;;;;;;;;;;;;1039654;28;811;-37
2022/03/17 02:01:27;;;;;;;;;;;;;;;;;;1043916;28;834;-37
2022/03/17 02:01:58;;;;;;;;;;;;;;;;;;1043785;28;1007;-36
2022/03/17 02:02:28;;;;;;;;;;;;;;;;;;1043846;28;1685;-37
2022/03/17 02:02:58;;;;;;;;;;;;;;;;;;1043872;28;930;-37
2022/03/17 02:03:29;;;;;;;;;;;;;;;;;;1043859;28;814;-37
2022/03/17 02:03:59;;;;;;;;;;;;;;;;;;1043883;28;984;-37
2022/03/17 02:04:30;;;;;;;;;;;;;;;;;;1040233;28;1137;-37
2022/03/17 02:05:03;;;;;;;;;;;;;;;;;;1039319;28;878;-37
2022/03/17 02:05:34;;;;;;;;;;;;;;;;;;1039726;28;956;-38
2022/03/17 02:06:04;;;;;;;;;;;;;;;;;;1039690;28;1675;-35
2022/03/17 02:06:37;;;;;;;;;;;;;;;;;;1039720;28;1910;-38
2022/03/17 02:07:07;;;;;;;;;;;;;;;;;;1039729;28;799;-37
2022/03/17 02:07:38;;;;;;;;;;;;;;;;;;1039776;28;929;-37
2022/03/17 02:08:10;;;;;;;;;;;;;;;;;;1039524;28;909;-37
2022/03/17 02:08:40;;;;;;;;;;;;;;;;;;1035279;28;973;-37
2022/03/17 02:09:10;;;;;;;;;;;;;;;;;;1035400;28;906;-37
2022/03/17 02:09:41;;;;;;;;;;;;;;;;;;1035445;28;775;-35
2022/03/17 02:10:12;;;;;;;;;;;;;;;;;;1035322;28;1010;-38
2022/03/17 02:13:09;;;;;;;;;;;;;;;;;;1039679;28;964;-35
2022/03/17 02:13:39;;;;;;;;;;;;;;;;;;1039705;28;867;-37
2022/03/17 02:14:12;;;;;;;;;;;;;;;;;;1035196;28;985;-36
2022/03/17 02:14:48;;;;;;;;;;;;;;;;;;1035404;28;969;-37
2022/03/17 02:15:18;;;;;;;;;;;;;;;;;;1035342;28;997;-38
2022/03/17 02:15:55;;;;;;;;;;;;;;;;;;1036471;28;1049;-38
2022/03/17 02:16:28;;;;;;;;;;;;;;;;;;1039642;28;794;-36
2022/03/17 02:16:58;;;;;;;;;;;;;;;;;;1039699;28;882;-36
2022/03/17 02:17:32;;;;;;;;;;;;;;;;;;1039722;28;898;-34
2022/03/17 02:18:06;;;;;;;;;;;;;;;;;;1039540;28;898;-38
2022/03/17 02:18:36;;;;;;;;;;;;;;;;;;1039780;28;902;-35
2022/03/17 02:19:07;;;;;;;;;;;;;;;;;;1039632;28;979;-37
2022/03/17 02:19:37;;;;;;;;;;;;;;;;;;1039159;28;965;-37
2022/03/17 02:20:09;;;;;;;;;;;;;;;;;;1039667;28;896;-36
2022/03/17 02:20:39;;;;;;;;;;;;;;;;;;1039700;28;957;-36
2022/03/17 02:21:11;;;;;;;;;;;;;;;;;;1039701;28;830;-37
2022/03/17 02:21:44;;;;;;;;;;;;;;;;;;1039751;28;798;-37
2022/03/17 02:22:18;;;;;;;;;;;;;;;;;;1039708;28;878;-37
2022/03/17 02:22:49;;;;;;;;;;;;;;;;;;1039540;28;812;-38
2022/03/17 02:25:47;;;;;;;;;;;;;;;;;;1043793;28;823;-38
2022/03/17 02:26:19;;;;;;;;;;;;;;;;;;1043792;28;1914;-37
2022/03/17 02:26:50;;;;;;;;;;;;;;;;;;1043270;28;850;-37
2022/03/17 02:27:20;;;;;;;;;;;;;;;;;;1043794;28;861;-37
2022/03/17 02:27:50;;;;;;;;;;;;;;;;;;1043665;28;853;-36
2022/03/17 02:28:21;;;;;;;;;;;;;;;;;;1043768;28;814;-38
2022/03/17 02:28:52;;;;;;;;;;;;;;;;;;1043665;28;922;-36
2022/03/17 02:29:22;;;;;;;;;;;;;;;;;;1043926;28;937;-36
2022/03/17 02:29:52;;;;;;;;;;;;;;;;;;1043620;28;838;-36
2022/03/17 02:30:24;;;;;;;;;;;;;;;;;;1043879;28;910;-37
2022/03/17 02:30:55;;;;;;;;;;;;;;;;;;1043698;28;850;-38
2022/03/17 02:31:26;;;;;;;;;;;;;;;;;;1043727;28;958;-34
2022/03/17 02:31:57;;;;;;;;;;;;;;;;;;1043965;28;882;-35
2022/03/17 02:32:27;;;;;;;;;;;;;;;;;;1043627;28;917;-37
2022/03/17 02:33:07;;;;;;;;;;;;;;;;;;1043878;28;938;-36
2022/03/17 02:33:40;;;;;;;;;;;;;;;;;;1043836;28;890;-38
2022/03/17 02:34:10;;;;;;;;;;;;;;;;;;1043312;28;950;-37
2022/03/17 02:34:41;;;;;;;;;;;;;;;;;;1043649;28;905;-37
2022/03/17 02:35:17;;;;;;;;;;;;;;;;;;1043486;28;862;-38
2022/03/17 02:35:49;;;;;;;;;;;;;;;;;;1043879;28;957;-36
2022/03/17 02:36:19;;;;;;;;;;;;;;;;;;1043756;28;933;-36
2022/03/17 02:36:51;;;;;;;;;;;;;;;;;;1043934;28;940;-38
2022/03/17 02:37:21;;;;;;;;;;;;;;;;;;1043647;28;921;-34
2022/03/17 02:37:51;;;;;;;;;;;;;;;;;;1043636;28;1155;-37
2022/03/17 02:38:22;;;;;;;;;;;;;;;;;;1043765;28;1315;-37
2022/03/17 02:38:52;;;;;;;;;;;;;;;;;;1043737;28;989;-38
2022/03/17 02:39:22;;;;;;;;;;;;;;;;;;1043713;28;827;-37
2022/03/17 02:39:53;;;;;;;;;;;;;;;;;;1043933;28;945;-37
2022/03/17 02:40:25;;;;;;;;;;;;;;;;;;1043616;28;878;-37
2022/03/17 02:40:55;;;;;;;;;;;;;;;;;;1043906;28;1001;-37
2022/03/17 02:41:25;;;;;;;;;;;;;;;;;;1043676;28;799;-35
2022/03/17 02:41:56;;;;;;;;;;;;;;;;;;1043087;28;834;-37
2022/03/17 02:42:30;;;;;;;;;;;;;;;;;;1043518;28;938;-38
2022/03/17 02:43:00;;;;;;;;;;;;;;;;;;1043163;28;846;-38
2022/03/17 02:43:30;;;;;;;;;;;;;;;;;;1043596;28;946;-38
2022/03/17 02:44:01;;;;;;;;;;;;;;;;;;1043812;28;966;-38
2022/03/17 02:44:32;;;;;;;;;;;;;;;;;;1043585;28;1035;-37
2022/03/17 02:45:03;;;;;;;;;;;;;;;;;;1043864;28;869;-38
2022/03/17 02:45:34;;;;;;;;;;;;;;;;;;1043612;28;933;-37
2022/03/17 02:46:05;;;;;;;;;;;;;;;;;;1043782;28;889;-38
2022/03/17 02:46:35;;;;;;;;;;;;;;;;;;1043616;28;1910;-38
2022/03/17 02:47:05;;;;;;;;;;;;;;;;;;1043585;28;1196;-38
2022/03/17 02:47:37;;;;;;;;;;;;;;;;;;1043833;28;770;-37
2022/03/17 02:48:07;;;;;;;;;;;;;;;;;;1043578;28;941;-38
2022/03/17 02:48:38;;;;;;;;;;;;;;;;;;1043775;28;878;-38
2022/03/17 02:49:08;;;;;;;;;;;;;;;;;;1043150;28;803;-38
2022/03/17 02:49:39;;;;;;;;;;;;;;;;;;1043613;28;845;-38
2022/03/17 02:50:12;;;;;;;;;;;;;;;;;;1043731;28;909;-38
2022/03/17 02:50:43;;;;;;;;;;;;;;;;;;1043812;28;1005;-38
2022/03/17 02:51:13;;;;;;;;;;;;;;;;;;1043752;28;968;-37
2022/03/17 02:51:44;;;;;;;;;;;;;;;;;;1043898;28;909;-38
2022/03/17 02:52:15;;;;;;;;;;;;;;;;;;1043474;28;822;-38
2022/03/17 02:52:45;;;;;;;;;;;;;;;;;;1043827;28;894;-36
2022/03/17 02:53:17;;;;;;;;;;;;;;;;;;1043648;28;922;-36
2022/03/17 02:53:48;;;;;;;;;;;;;;;;;;1043793;28;868;-37
2022/03/17 02:54:19;;;;;;;;;;;;;;;;;;1043682;28;890;-37
2022/03/17 02:54:50;;;;;;;;;;;;;;;;;;1043697;28;819;-36
2022/03/17 02:55:20;;;;;;;;;;;;;;;;;;1043670;28;922;-38
2022/03/17 02:55:52;;;;;;;;;;;;;;;;;;1043834;28;780;-37
2022/03/17 02:56:23;;;;;;;;;;;;;;;;;;1043184;28;965;-37
2022/03/17 02:56:53;;;;;;;;;;;;;;;;;;1043670;28;847;-33
2022/03/17 02:57:23;;;;;;;;;;;;;;;;;;1043614;28;834;-38
2022/03/17 02:57:54;;;;;;;;;;;;;;;;;;1043651;28;918;-38
2022/03/17 02:58:24;;;;;;;;;;;;;;;;;;1043660;28;826;-36
2022/03/17 02:58:55;;;;;;;;;;;;;;;;;;1043726;28;953;-38
2022/03/17 02:59:25;;;;;;;;;;;;;;;;;;1043797;28;894;-38
2022/03/17 02:59:55;;;;;;;;;;;;;;;;;;1043785;28;834;-38
2022/03/17 03:00:25;;;;;;;;;;;;;;;;;;1043458;28;977;-37
2022/03/17 03:00:56;;;;;;;;;;;;;;;;;;1043943;28;890;-37
2022/03/17 03:01:27;;;;;;;;;;;;;;;;;;1043504;28;799;-36
2022/03/17 03:01:57;;;;;;;;;;;;;;;;;;1043925;28;889;-38
2022/03/17 03:02:27;;;;;;;;;;;;;;;;;;1043640;28;810;-37
2022/03/17 03:02:57;;;;;;;;;;;;;;;;;;1043738;28;814;-38
2022/03/17 03:03:28;;;;;;;;;;;;;;;;;;1043663;28;1672;-38
2022/03/17 03:03:58;;;;;;;;;;;;;;;;;;1043113;28;874;-38
2022/03/17 03:04:28;;;;;;;;;;;;;;;;;;1040113;28;1167;-35
2022/03/17 03:04:59;;;;;;;;;;;;;;;;;;1039735;28;940;-36
2022/03/17 03:05:29;;;;;;;;;;;;;;;;;;1039296;28;989;-37
2022/03/17 03:05:59;;;;;;;;;;;;;;;;;;1039752;28;986;-37
2022/03/17 03:06:30;;;;;;;;;;;;;;;;;;1039315;28;1914;-38
2022/03/17 03:07:02;;;;;;;;;;;;;;;;;;1039522;28;1210;-38
2022/03/17 03:07:32;;;;;;;;;;;;;;;;;;1039504;28;885;-37
2022/03/17 03:08:02;;;;;;;;;;;;;;;;;;1039502;28;811;-36
2022/03/17 03:08:33;;;;;;;;;;;;;;;;;;1039443;28;992;-37
2022/03/17 03:09:04;;;;;;;;;;;;;;;;;;1039723;28;1004;-36
2022/03/17 03:09:34;;;;;;;;;;;;;;;;;;1039512;28;822;-37
2022/03/17 03:10:05;;;;;;;;;;;;;;;;;;1039748;28;834;-37
2022/03/17 03:10:35;;;;;;;;;;;;;;;;;;1039457;28;866;-37
2022/03/17 03:11:06;;;;;;;;;;;;;;;;;;1039528;28;925;-37
2022/03/17 03:11:37;;;;;;;;;;;;;;;;;;1038945;28;831;-38
2022/03/17 03:12:08;;;;;;;;;;;;;;;;;;1039544;28;853;-37
2022/03/17 03:12:39;;;;;;;;;;;;;;;;;;1039623;28;814;-36
2022/03/17 03:13:10;;;;;;;;;;;;;;;;;;1039540;28;795;-38
2022/03/17 03:13:40;;;;;;;;;;;;;;;;;;1039542;28;906;-37
2022/03/17 03:14:11;;;;;;;;;;;;;;;;;;1039680;28;811;-37
2022/03/17 03:14:41;;;;;;;;;;;;;;;;;;1039522;28;807;-38
2022/03/17 03:15:12;;;;;;;;;;;;;;;;;;1039532;28;938;-36
2022/03/17 03:15:42;;;;;;;;;;;;;;;;;;1039604;28;794;-37
2022/03/17 03:16:13;;;;;;;;;;;;;;;;;;1039542;28;934;-36
2022/03/17 03:16:44;;;;;;;;;;;;;;;;;;1039620;28;996;-37
2022/03/17 03:17:14;;;;;;;;;;;;;;;;;;1039523;28;885;-37
2022/03/17 03:17:45;;;;;;;;;;;;;;;;;;1039399;28;964;-38
2022/03/17 03:18:15;;;;;;;;;;;;;;;;;;1039555;28;918;-38
2022/03/17 03:18:46;;;;;;;;;;;;;;;;;;1038767;28;914;-37
2022/03/17 03:19:16;;;;;;;;;;;;;;;;;;1039679;28;859;-37
2022/03/17 03:19:47;;;;;;;;;;;;;;;;;;1039554;28;822;-37
2022/03/17 03:20:18;;;;;;;;;;;;;;;;;;1039722;28;893;-38
2022/03/17 03:20:48;;;;;;;;;;;;;;;;;;1039567;28;1046;-37
2022/03/17 03:21:19;;;;;;;;;;;;;;;;;;1039640;28;858;-38
2022/03/17 03:21:50;;;;;;;;;;;;;;;;;;1039498;28;925;-37
2022/03/17 03:22:21;;;;;;;;;;;;;;;;;;1039669;28;941;-37
2022/03/17 03:22:51;;;;;;;;;;;;;;;;;;1039424;28;791;-36
2022/03/17 03:23:21;;;;;;;;;;;;;;;;;;1039766;28;822;-36
2022/03/17 03:23:51;;;;;;;;;;;;;;;;;;1039370;28;929;-37
2022/03/17 03:24:22;;;;;;;;;;;;;;;;;;1039713;28;878;-38
2022/03/17 03:24:52;;;;;;;;;;;;;;;;;;1039533;28;858;-35
2022/03/17 03:25:23;;;;;;;;;;;;;;;;;;1042376;28;1100;-36
2022/03/17 03:25:53;;;;;;;;;;;;;;;;;;1043560;28;949;-36
2022/03/17 03:26:24;;;;;;;;;;;;;;;;;;1043020;28;1934;-36
2022/03/17 03:26:54;;;;;;;;;;;;;;;;;;1043564;28;894;-37
2022/03/17 03:27:27;;;;;;;;;;;;;;;;;;1043894;28;1099;-37
2022/03/17 03:28:04;;;;;;;;;;;;;;;;;;1043454;28;815;-36
2022/03/17 03:28:34;;;;;;;;;;;;;;;;;;1043628;28;869;-38
2022/03/17 03:29:07;;;;;;;;;;;;;;;;;;1043592;28;918;-37
2022/03/17 03:29:37;;;;;;;;;;;;;;;;;;1043818;28;795;-37
2022/03/17 03:30:08;;;;;;;;;;;;;;;;;;1043667;28;949;-37
2022/03/17 03:30:39;;;;;;;;;;;;;;;;;;1043637;28;945;-37
2022/03/17 03:31:09;;;;;;;;;;;;;;;;;;1043697;28;858;-37
2022/03/17 03:31:39;;;;;;;;;;;;;;;;;;1043677;28;937;-37
2022/03/17 03:32:09;;;;;;;;;;;;;;;;;;1043491;28;1280;-37
2022/03/17 03:32:41;;;;;;;;;;;;;;;;;;1043716;28;866;-37
2022/03/17 03:33:11;;;;;;;;;;;;;;;;;;1043603;28;865;-37
2022/03/17 03:33:41;;;;;;;;;;;;;;;;;;1043146;28;791;-38
2022/03/17 03:34:11;;;;;;;;;;;;;;;;;;1043562;28;864;-38
2022/03/17 03:34:42;;;;;;;;;;;;;;;;;;1043652;28;953;-38
2022/03/17 03:37:23;;;;;;;;;;;;;;;;;;1034598;28;990;-37
2022/03/17 03:37:53;;;;;;;;;;;;;;;;;;1034615;28;1303;-35
2022/03/17 03:38:23;;;;;;;;;;;;;;;;;;1034797;28;981;-38
2022/03/17 03:38:54;;;;;;;;;;;;;;;;;;1034765;28;976;-38
2022/03/17 03:39:24;;;;;;;;;;;;;;;;;;1034923;28;1136;-36
2022/03/17 03:39:57;;;;;;;;;;;;;;;;;;1034676;28;956;-37
2022/03/17 03:40:27;;;;;;;;;;;;;;;;;;1034688;28;941;-38
2022/03/17 03:40:59;;;;;;;;;;;;;;;;;;1034123;28;941;-37
2022/03/17 03:41:30;;;;;;;;;;;;;;;;;;1034724;28;961;-38
2022/03/17 03:42:01;;;;;;;;;;;;;;;;;;1034830;28;815;-37
2022/03/17 03:42:31;;;;;;;;;;;;;;;;;;1034495;28;882;-37
2022/03/17 03:43:01;;;;;;;;;;;;;;;;;;1037813;28;956;-38
2022/03/17 03:43:32;;;;;;;;;;;;;;;;;;1043577;28;898;-37
2022/03/17 03:44:03;;;;;;;;;;;;;;;;;;1043589;28;934;-37
2022/03/17 03:44:37;;;;;;;;;;;;;;;;;;1043630;28;913;-36
2022/03/17 03:45:08;;;;;;;;;;;;;;;;;;1043501;28;830;-37
2022/03/17 03:45:38;;;;;;;;;;;;;;;;;;1043803;28;902;-39